Time;durP1;ratioP1;P1;durP2;ratioP2;P2;SDS_P1;SDS_P2;PMS_P1;PMS_P2;Temp;Humidity;BMP_temperature;BMP_pressure;BME280_temperature;BME280_humidity;BME280_pressure;Samples;Min_cycle;Max_cycle;Signal;HPM_P1;HPM_P2
2023/03/03 00:01:38;;;;;;;18.63;8.10;;;5.40;68.80;;;;;;5067060;28;20435;-86
2023/03/03 00:04:08;;;;;;;17.27;7.55;;;5.40;69.00;;;;;;5050311;28;20264;-87
2023/03/03 00:06:35;;;;;;;16.95;7.50;;;5.30;69.10;;;;;;5051265;28;20052;-86
2023/03/03 00:09:02;;;;;;;18.33;7.85;;;5.30;69.20;;;;;;5041458;28;20119;-86
2023/03/03 00:11:29;;;;;;;18.05;8.18;;;5.30;69.30;;;;;;5059712;28;20141;-86
2023/03/03 00:13:58;;;;;;;16.67;7.60;;;5.30;69.40;;;;;;5066201;28;20076;-86
2023/03/03 00:16:27;;;;;;;18.90;7.78;;;5.30;69.40;;;;;;5065100;28;20381;-87
2023/03/03 00:18:55;;;;;;;17.00;7.55;;;5.30;69.50;;;;;;5063651;28;20132;-87
2023/03/03 00:21:29;;;;;;;18.05;7.32;;;5.30;69.50;;;;;;5045549;28;20692;-86
2023/03/03 00:24:11;;;;;;;17.00;7.95;;;5.30;69.50;;;;;;5049694;28;20056;-85
2023/03/03 00:26:40;;;;;;;18.43;8.23;;;5.30;69.50;;;;;;5066371;28;20068;-86
2023/03/03 00:29:31;;;;;;;19.38;8.52;;;5.30;69.60;;;;;;5067017;28;20260;-87
2023/03/03 00:32:15;;;;;;;21.58;9.00;;;5.30;69.70;;;;;;5042054;28;20049;-86
2023/03/03 00:34:43;;;;;;;21.70;8.63;;;5.30;69.80;;;;;;5065615;28;20057;-86
2023/03/03 00:37:26;;;;;;;19.00;8.82;;;5.20;69.90;;;;;;5049986;28;20115;-86
2023/03/03 00:39:53;;;;;;;19.83;8.07;;;5.20;70.00;;;;;;5050214;28;20053;-87
2023/03/03 00:42:20;;;;;;;20.88;9.02;;;5.10;70.00;;;;;;5066383;28;20766;-86
2023/03/03 00:44:48;;;;;;;18.98;8.35;;;5.10;70.20;;;;;;5049404;28;20474;-87
2023/03/03 00:47:27;;;;;;;18.17;7.80;;;5.10;70.30;;;;;;5049508;28;20057;-87
2023/03/03 00:49:55;;;;;;;18.35;8.50;;;5.10;70.30;;;;;;5085582;28;20045;-86
2023/03/03 00:52:27;;;;;;;20.10;8.50;;;5.10;70.30;;;;;;5068483;28;20104;-87
2023/03/03 00:54:55;;;;;;;21.02;8.05;;;5.10;70.40;;;;;;5053701;28;20888;-87
2023/03/03 00:57:22;;;;;;;20.73;8.43;;;5.10;70.40;;;;;;5053120;28;20080;-86
2023/03/03 00:59:50;;;;;;;19.30;7.65;;;5.10;70.40;;;;;;5052204;28;20045;-86
2023/03/03 01:02:17;;;;;;;20.75;8.68;;;5.10;70.50;;;;;;5053331;28;20045;-87
2023/03/03 01:04:48;;;;;;;21.37;8.07;;;5.20;70.50;;;;;;5053549;28;20059;-86
2023/03/03 01:07:15;;;;;;;19.13;7.97;;;5.10;70.50;;;;;;5054076;28;20272;-87
2023/03/03 01:09:44;;;;;;;21.73;8.88;;;5.20;70.70;;;;;;5068507;28;20109;-86
2023/03/03 01:12:12;;;;;;;21.00;8.98;;;5.20;70.70;;;;;;5052585;28;20057;-86
2023/03/03 01:14:39;;;;;;;22.08;9.02;;;5.20;70.70;;;;;;5052841;28;20044;-87
2023/03/03 01:17:07;;;;;;;22.63;9.07;;;5.20;70.70;;;;;;5045166;28;20053;-87
2023/03/03 01:19:35;;;;;;;21.85;9.13;;;5.20;70.80;;;;;;5068155;28;20365;-87
2023/03/03 01:22:02;;;;;;;22.27;8.68;;;5.20;70.90;;;;;;5053108;28;20373;-87
2023/03/03 01:24:29;;;;;;;20.33;9.13;;;5.20;70.80;;;;;;5070053;28;20134;-87
2023/03/03 01:26:57;;;;;;;23.35;9.40;;;5.20;70.90;;;;;;5050109;28;20612;-87
2023/03/03 01:29:24;;;;;;;19.80;8.17;;;5.20;71.00;;;;;;5049106;28;20099;-87
2023/03/03 01:31:51;;;;;;;22.52;9.20;;;5.20;71.00;;;;;;5052456;28;20758;-86
2023/03/03 01:34:18;;;;;;;22.52;9.18;;;5.20;70.90;;;;;;5052291;28;20136;-86
2023/03/03 01:36:45;;;;;;;21.77;8.88;;;5.30;71.00;;;;;;5052461;28;20076;-86
2023/03/03 01:39:12;;;;;;;22.77;9.43;;;5.20;71.00;;;;;;5052082;28;20535;-87
2023/03/03 01:41:40;;;;;;;22.40;9.23;;;5.20;71.10;;;;;;5036911;28;20159;-86
2023/03/03 01:44:14;;;;;;;23.05;9.77;;;5.20;71.10;;;;;;5037789;28;20279;-86
2023/03/03 01:46:53;;;;;;;24.45;9.95;;;5.20;71.20;;;;;;5052642;28;20507;-86
2023/03/03 01:49:23;;;;;;;23.30;9.95;;;5.20;71.20;;;;;;5068742;28;20508;-87
2023/03/03 01:51:54;;;;;;;23.75;9.70;;;5.20;71.20;;;;;;5069052;28;20052;-86
2023/03/03 01:54:26;;;;;;;27.07;10.30;;;5.20;71.20;;;;;;5052126;28;20154;-86
2023/03/03 01:56:58;;;;;;;24.67;9.20;;;5.20;71.30;;;;;;5051865;28;20730;-86
2023/03/03 01:59:31;;;;;;;24.83;9.52;;;5.20;71.00;;;;;;5043255;28;20052;-87
2023/03/03 02:01:58;;;;;;;26.50;9.88;;;5.10;71.00;;;;;;5048846;28;20491;-85
2023/03/03 02:04:27;;;;;;;25.08;10.07;;;5.10;71.20;;;;;;5051732;28;20529;-86
2023/03/03 02:06:57;;;;;;;24.97;9.80;;;5.10;71.40;;;;;;5068035;28;20127;-86
2023/03/03 02:09:31;;;;;;;22.83;9.15;;;5.10;71.50;;;;;;5051361;28;20286;-84
2023/03/03 02:12:03;;;;;;;25.83;9.63;;;5.10;71.50;;;;;;5050398;28;20681;-86
2023/03/03 02:14:31;;;;;;;25.67;10.20;;;5.20;71.60;;;;;;5049991;28;20506;-85
2023/03/03 02:16:59;;;;;;;27.55;10.73;;;5.10;71.60;;;;;;5050043;28;20048;-86
2023/03/03 02:19:33;;;;;;;25.67;10.40;;;5.20;71.70;;;;;;5048031;28;20073;-86
2023/03/03 02:22:02;;;;;;;28.70;10.10;;;5.20;71.80;;;;;;5050224;28;20279;-85
2023/03/03 02:24:35;;;;;;;24.48;9.98;;;5.20;71.90;;;;;;5050280;28;20045;-86
2023/03/03 02:27:05;;;;;;;29.77;10.57;;;5.20;71.90;;;;;;5051685;28;20060;-86
2023/03/03 02:29:32;;;;;;;26.75;9.98;;;5.20;72.00;;;;;;5050939;28;20045;-87
2023/03/03 02:32:00;;;;;;;26.90;10.17;;;5.20;72.00;;;;;;5051798;28;20045;-87
2023/03/03 02:34:27;;;;;;;29.52;10.82;;;5.20;72.10;;;;;;5051453;28;20746;-87
2023/03/03 02:36:54;;;;;;;28.90;10.95;;;5.20;72.10;;;;;;5050234;28;20059;-87
2023/03/03 02:39:23;;;;;;;25.58;10.05;;;5.30;72.20;;;;;;5067937;28;20156;-87
2023/03/03 02:41:56;;;;;;;26.05;10.88;;;5.20;72.20;;;;;;5051050;28;20156;-86
2023/03/03 02:44:30;;;;;;;27.93;10.57;;;5.20;72.20;;;;;;5068285;28;20060;-86
2023/03/03 02:46:58;;;;;;;29.85;11.32;;;5.20;72.30;;;;;;5085607;28;20298;-87
2023/03/03 02:49:27;;;;;;;29.00;10.32;;;5.30;72.30;;;;;;5076341;28;20731;-87
2023/03/03 02:51:55;;;;;;;30.08;10.35;;;5.30;72.40;;;;;;5047573;28;20055;-87
2023/03/03 02:54:26;;;;;;;29.80;10.68;;;5.20;72.50;;;;;;5048895;28;20093;-87
2023/03/03 02:56:54;;;;;;;28.47;9.93;;;5.20;72.40;;;;;;5049952;28;20084;-87
2023/03/03 02:59:21;;;;;;;26.95;10.90;;;5.20;72.50;;;;;;5049797;28;20710;-87
2023/03/03 03:01:52;;;;;;;27.67;10.65;;;5.20;72.60;;;;;;5049861;28;20156;-87
2023/03/03 03:04:22;;;;;;;29.92;10.18;;;5.20;72.70;;;;;;5051049;28;20136;-87
2023/03/03 03:06:51;;;;;;;30.45;11.05;;;5.10;72.80;;;;;;5050814;28;20052;-86
2023/03/03 03:09:20;;;;;;;23.80;8.97;;;5.20;72.80;;;;;;5068246;28;20423;-87
2023/03/03 03:11:50;;;;;;;24.20;8.82;;;5.20;72.80;;;;;;5049930;28;20364;-86
2023/03/03 03:14:20;;;;;;;20.17;7.85;;;5.20;72.80;;;;;;5051129;28;20317;-87
2023/03/03 03:16:47;;;;;;;21.50;7.15;;;5.20;73.00;;;;;;5051238;28;20545;-87
2023/03/03 03:19:16;;;;;;;15.68;5.65;;;5.20;73.00;;;;;;5067550;28;20038;-87
2023/03/03 03:21:44;;;;;;;16.77;6.30;;;5.20;73.00;;;;;;5050774;28;20060;-87
2023/03/03 03:24:11;;;;;;;12.68;4.85;;;5.20;73.00;;;;;;5051023;28;20252;-86
2023/03/03 03:26:42;;;;;;;14.85;5.05;;;5.20;72.60;;;;;;5051000;28;20065;-86
2023/03/03 03:29:10;;;;;;;17.45;6.45;;;5.30;72.60;;;;;;5049161;28;20077;-86
2023/03/03 03:31:38;;;;;;;15.40;5.45;;;5.30;72.80;;;;;;5050429;28;20077;-86
2023/03/03 03:34:05;;;;;;;18.90;6.03;;;5.30;72.70;;;;;;5050455;28;20474;-86
2023/03/03 03:36:34;;;;;;;18.58;5.97;;;5.30;72.80;;;;;;5050578;28;20698;-86
2023/03/03 03:39:01;;;;;;;15.15;6.00;;;5.30;72.90;;;;;;5056734;28;20053;-86
2023/03/03 03:41:29;;;;;;;17.08;6.30;;;5.30;72.90;;;;;;5050850;28;20149;-86
2023/03/03 03:43:56;;;;;;;18.55;7.05;;;5.30;72.90;;;;;;5050050;28;20049;-86
2023/03/03 03:46:25;;;;;;;15.37;5.97;;;5.30;72.70;;;;;;5049200;28;20060;-86
2023/03/03 03:48:54;;;;;;;17.45;6.50;;;5.30;72.60;;;;;;5035318;28;20805;-87
2023/03/03 03:51:22;;;;;;;17.98;7.13;;;5.30;72.90;;;;;;5067351;28;20060;-86
2023/03/03 03:53:50;;;;;;;17.73;6.75;;;5.30;73.10;;;;;;5043207;28;20107;-86
2023/03/03 03:56:17;;;;;;;17.38;5.97;;;5.30;73.20;;;;;;5051005;28;20052;-86
2023/03/03 03:58:46;;;;;;;17.17;6.00;;;5.30;73.30;;;;;;5067375;28;20570;-86
2023/03/03 04:01:15;;;;;;;17.58;6.07;;;5.30;73.30;;;;;;5050881;28;20376;-85
2023/03/03 04:03:48;;;;;;;18.73;5.72;;;5.30;73.20;;;;;;5051151;28;20890;-86
2023/03/03 04:06:19;;;;;;;18.15;6.45;;;5.30;73.40;;;;;;5065456;28;20056;-86
2023/03/03 04:08:47;;;;;;;16.27;5.80;;;5.30;73.40;;;;;;5051157;28;20051;-86
2023/03/03 04:11:17;;;;;;;15.87;5.90;;;5.30;73.40;;;;;;5050464;28;20049;-86
2023/03/03 04:13:43;;;;;;;15.45;5.82;;;5.30;73.60;;;;;;5050213;28;20256;-86
2023/03/03 04:16:13;;;;;;;16.73;5.47;;;5.30;73.50;;;;;;5050368;28;20049;-86
2023/03/03 04:18:43;;;;;;;13.48;5.78;;;5.30;73.60;;;;;;5050424;28;20053;-86
2023/03/03 04:21:13;;;;;;;17.73;5.72;;;5.30;73.70;;;;;;5050317;28;20068;-86
2023/03/03 04:23:42;;;;;;;14.30;5.27;;;5.30;73.70;;;;;;5048378;28;20150;-87
2023/03/03 04:26:09;;;;;;;20.92;5.82;;;5.30;73.70;;;;;;5053923;28;20619;-86
2023/03/03 04:28:38;;;;;;;15.40;5.32;;;5.30;73.80;;;;;;5053376;28;20049;-86
2023/03/03 04:31:05;;;;;;;14.48;5.15;;;5.30;73.80;;;;;;5053812;28;20076;-86
2023/03/03 04:33:33;;;;;;;14.75;5.68;;;5.30;73.80;;;;;;5053292;28;20061;-86
2023/03/03 04:36:03;;;;;;;13.20;5.30;;;5.30;73.90;;;;;;5053174;28;20570;-87
2023/03/03 04:38:31;;;;;;;16.33;5.60;;;5.30;73.90;;;;;;5053613;28;20252;-86
2023/03/03 04:40:58;;;;;;;18.88;6.00;;;5.30;73.90;;;;;;5051514;28;20055;-86
2023/03/03 04:43:28;;;;;;;14.02;5.30;;;5.30;74.00;;;;;;5047404;28;20040;-86
2023/03/03 04:45:57;;;;;;;16.08;5.25;;;5.30;74.10;;;;;;5053370;28;20049;-86
2023/03/03 04:48:24;;;;;;;15.37;6.33;;;5.30;74.00;;;;;;5053421;28;20095;-86
2023/03/03 04:50:52;;;;;;;14.55;5.30;;;5.20;74.00;;;;;;5038056;28;20275;-85
2023/03/03 04:53:20;;;;;;;16.63;5.43;;;5.20;74.10;;;;;;5060915;28;20049;-86
2023/03/03 04:55:47;;;;;;;17.05;6.22;;;5.20;74.10;;;;;;5053742;28;20029;-85
2023/03/03 04:58:14;;;;;;;16.58;5.60;;;5.20;74.20;;;;;;5050982;28;20132;-86
2023/03/03 05:00:42;;;;;;;16.07;6.27;;;5.20;74.20;;;;;;5052802;28;20056;-86
2023/03/03 05:03:12;;;;;;;17.08;6.00;;;5.20;74.20;;;;;;5052593;28;20256;-86
2023/03/03 05:05:41;;;;;;;17.50;5.55;;;5.20;74.30;;;;;;5053056;28;20359;-86
2023/03/03 05:08:08;;;;;;;16.05;5.32;;;5.20;74.40;;;;;;5052394;28;20073;-87
2023/03/03 05:10:35;;;;;;;17.88;5.00;;;5.20;74.40;;;;;;5052905;28;20491;-86
2023/03/03 05:13:02;;;;;;;13.60;5.57;;;5.20;74.40;;;;;;5052991;28;20123;-87
2023/03/03 05:15:29;;;;;;;14.27;5.18;;;5.20;74.40;;;;;;5051124;28;20268;-86
2023/03/03 05:17:56;;;;;;;19.60;4.97;;;5.20;74.50;;;;;;5063845;28;20053;-86
2023/03/03 05:20:25;;;;;;;15.38;5.32;;;5.20;74.50;;;;;;5062786;28;20088;-85
2023/03/03 05:22:52;;;;;;;15.00;5.60;;;5.20;74.60;;;;;;5052574;28;20155;-86
2023/03/03 05:25:19;;;;;;;14.97;5.87;;;5.20;74.50;;;;;;5052748;28;20481;-86
2023/03/03 05:27:46;;;;;;;14.30;5.15;;;5.20;74.60;;;;;;5052733;28;20291;-86
2023/03/03 05:30:14;;;;;;;15.15;5.85;;;5.20;74.70;;;;;;5102969;28;20049;-85
2023/03/03 05:32:41;;;;;;;12.88;4.90;;;5.20;74.70;;;;;;5050381;28;20579;-86
2023/03/03 05:35:09;;;;;;;17.13;5.28;;;5.20;74.70;;;;;;5068599;28;20539;-86
2023/03/03 05:37:41;;;;;;;13.33;4.80;;;5.20;74.70;;;;;;5051536;28;20049;-86
2023/03/03 05:40:10;;;;;;;13.00;4.90;;;5.20;74.70;;;;;;5054116;28;20359;-86
2023/03/03 05:42:37;;;;;;;17.20;4.82;;;5.20;74.70;;;;;;5044990;28;20132;-86
2023/03/03 05:45:05;;;;;;;13.20;4.68;;;5.20;74.70;;;;;;5050278;28;20061;-87
2023/03/03 05:47:32;;;;;;;12.35;4.13;;;5.20;74.80;;;;;;5066103;28;20163;-86
2023/03/03 05:49:59;;;;;;;10.10;3.37;;;5.20;74.80;;;;;;5053374;28;20053;-86
2023/03/03 05:52:27;;;;;;;6.18;2.80;;;5.20;74.70;;;;;;5052160;28;20260;-85
2023/03/03 05:54:55;;;;;;;8.23;2.80;;;5.20;74.50;;;;;;5052081;28;20053;-86
2023/03/03 05:57:22;;;;;;;10.52;2.78;;;5.20;74.10;;;;;;5051580;28;20049;-86
2023/03/03 05:59:50;;;;;;;7.15;2.60;;;5.20;74.20;;;;;;5068477;28;20065;-86
2023/03/03 06:02:17;;;;;;;8.30;3.20;;;5.20;74.10;;;;;;5052067;28;20144;-86
2023/03/03 06:04:44;;;;;;;8.98;3.00;;;5.20;74.10;;;;;;5069263;28;20248;-85
2023/03/03 06:07:12;;;;;;;7.43;3.20;;;5.20;74.10;;;;;;5051498;28;20069;-86
2023/03/03 06:09:39;;;;;;;8.18;3.13;;;5.20;73.90;;;;;;5052010;28;20150;-85
2023/03/03 06:12:08;;;;;;;9.90;3.22;;;5.20;73.70;;;;;;5069033;28;20063;-86
2023/03/03 06:14:35;;;;;;;8.77;3.20;;;5.10;73.70;;;;;;5052274;28;20131;-85
2023/03/03 06:17:02;;;;;;;7.95;3.00;;;5.10;73.60;;;;;;5068798;28;20709;-85
2023/03/03 06:19:29;;;;;;;11.02;3.90;;;5.10;73.60;;;;;;5068859;28;20077;-85
2023/03/03 06:21:56;;;;;;;11.23;3.95;;;5.10;74.00;;;;;;5068995;28;20076;-85
2023/03/03 06:24:24;;;;;;;10.95;3.88;;;5.20;74.30;;;;;;5052065;28;20186;-85
2023/03/03 06:26:51;;;;;;;11.23;3.60;;;5.20;74.00;;;;;;5050743;28;20059;-86
2023/03/03 06:29:19;;;;;;;7.47;3.10;;;5.10;74.10;;;;;;5051644;28;20350;-86
2023/03/03 06:31:47;;;;;;;7.22;2.85;;;5.10;74.00;;;;;;5051997;28;20509;-86
2023/03/03 06:34:14;;;;;;;6.78;2.75;;;5.10;73.70;;;;;;5051988;28;20184;-85
2023/03/03 06:36:41;;;;;;;7.38;2.75;;;5.10;73.90;;;;;;5051960;28;20601;-86
2023/03/03 06:39:08;;;;;;;6.93;2.67;;;5.00;73.70;;;;;;5054593;28;20063;-86
2023/03/03 06:41:35;;;;;;;6.88;2.45;;;5.10;73.80;;;;;;5060752;28;20256;-86
2023/03/03 06:44:02;;;;;;;7.28;2.90;;;5.10;74.10;;;;;;5067388;28;20072;-85
2023/03/03 06:46:31;;;;;;;6.93;2.53;;;5.10;73.80;;;;;;5051509;28;20053;-85
2023/03/03 06:48:58;;;;;;;6.97;2.45;;;5.10;74.10;;;;;;5067686;28;20164;-85
2023/03/03 06:51:30;;;;;;;7.73;2.80;;;5.10;74.20;;;;;;5051802;28;20072;-86
2023/03/03 06:54:00;;;;;;;7.65;2.88;;;5.10;74.30;;;;;;5068690;28;20338;-85
2023/03/03 06:56:28;;;;;;;6.85;2.70;;;5.10;73.90;;;;;;5085138;28;20799;-85
2023/03/03 06:58:58;;;;;;;7.45;2.58;;;5.10;74.20;;;;;;5085202;28;20146;-85
2023/03/03 07:01:25;;;;;;;6.22;2.20;;;5.10;74.40;;;;;;5049833;28;20503;-86
2023/03/03 07:03:55;;;;;;;13.03;2.50;;;5.10;74.50;;;;;;5051672;28;20041;-85
2023/03/03 07:06:24;;;;;;;5.78;2.28;;;5.20;74.50;;;;;;5068122;28;20619;-86
2023/03/03 07:08:52;;;;;;;10.40;2.30;;;5.10;74.30;;;;;;5051184;28;20049;-85
2023/03/03 07:11:20;;;;;;;6.65;2.28;;;5.10;74.30;;;;;;5034982;28;20055;-86
2023/03/03 07:13:49;;;;;;;5.90;2.10;;;5.10;74.50;;;;;;5050844;28;20095;-86
2023/03/03 07:16:17;;;;;;;7.83;2.77;;;5.10;74.60;;;;;;5050720;28;20431;-86
2023/03/03 07:18:51;;;;;;;10.63;1.98;;;5.10;74.70;;;;;;5067302;28;20943;-86
2023/03/03 07:21:23;;;;;;;9.75;2.75;;;5.10;74.80;;;;;;5051999;28;20052;-86
2023/03/03 07:23:52;;;;;;;11.10;2.45;;;5.10;75.00;;;;;;5049402;28;20642;-87
2023/03/03 07:26:22;;;;;;;7.80;2.60;;;5.20;75.00;;;;;;5067012;28;20131;-86
2023/03/03 07:28:54;;;;;;;7.20;2.37;;;5.10;75.00;;;;;;5053651;28;20059;-90
2023/03/03 07:31:29;;;;;;;7.32;2.60;;;5.10;75.10;;;;;;5063325;28;20247;-84
2023/03/03 07:33:59;;;;;;;11.15;2.90;;;5.10;75.20;;;;;;5063546;28;20522;-84
2023/03/03 07:36:35;;;;;;;7.93;2.70;;;5.10;75.20;;;;;;5063327;28;20061;-80
2023/03/03 07:39:21;;;;;;;6.93;2.60;;;5.10;75.30;;;;;;5043461;28;20158;-86
2023/03/03 07:41:50;;;;;;;14.37;3.00;;;5.10;75.40;;;;;;5042412;28;20453;-86
2023/03/03 07:44:22;;;;;;;7.88;2.42;;;5.10;75.30;;;;;;5046967;28;20260;-87
2023/03/03 07:46:50;;;;;;;8.88;3.10;;;5.10;75.40;;;;;;5063987;28;20138;-79
2023/03/03 07:49:30;;;;;;;9.75;3.50;;;5.10;75.00;;;;;;5062624;28;20052;-82
2023/03/03 07:52:00;;;;;;;11.13;3.80;;;5.10;75.40;;;;;;5041061;28;20057;-79
2023/03/03 07:54:36;;;;;;;13.63;3.20;;;5.10;75.40;;;;;;5066490;28;20125;-78
2023/03/03 07:57:14;;;;;;;10.88;3.00;;;5.10;75.60;;;;;;5064014;28;20310;-83
2023/03/03 07:59:47;;;;;;;8.70;3.35;;;5.10;75.70;;;;;;5059493;28;20049;-76
2023/03/03 08:02:41;;;;;;;11.68;3.70;;;5.10;75.60;;;;;;5067444;28;20053;-72
2023/03/03 08:05:28;;;;;;;11.23;3.83;;;5.10;75.80;;;;;;5060925;28;20060;-77
2023/03/03 08:08:10;;;;;;;10.73;3.70;;;5.10;75.90;;;;;;5048155;28;20132;-73
2023/03/03 08:10:44;;;;;;;9.48;3.72;;;5.10;75.90;;;;;;5062866;28;20271;-79
2023/03/03 08:13:18;;;;;;;10.32;3.75;;;5.10;75.90;;;;;;5061046;28;20137;-83
2023/03/03 08:15:46;;;;;;;9.20;3.60;;;5.10;76.00;;;;;;5061800;28;20049;-73
2023/03/03 08:18:35;;;;;;;12.27;4.13;;;5.10;76.20;;;;;;5046014;28;20049;-78
2023/03/03 08:21:05;;;;;;;11.93;3.87;;;5.10;76.30;;;;;;5059783;28;20799;-81
2023/03/03 08:23:33;;;;;;;11.30;3.78;;;5.10;76.40;;;;;;5069265;28;20252;-77
2023/03/03 08:26:00;;;;;;;11.27;4.13;;;5.00;76.30;;;;;;5043140;28;20048;-76
2023/03/03 08:28:27;;;;;;;13.73;4.03;;;5.00;76.60;;;;;;5066727;28;20132;-82
2023/03/03 08:30:54;;;;;;;9.85;3.00;;;5.00;76.70;;;;;;5063772;28;20684;-83
2023/03/03 08:33:22;;;;;;;10.03;3.93;;;5.00;76.70;;;;;;5065217;28;20059;-81
2023/03/03 08:35:49;;;;;;;13.10;3.88;;;4.90;76.90;;;;;;5065372;28;20251;-84
2023/03/03 08:38:19;;;;;;;12.77;4.25;;;5.00;77.00;;;;;;5038359;28;20058;-82
2023/03/03 08:40:48;;;;;;;9.10;3.70;;;4.90;77.10;;;;;;5054065;28;20060;-84
2023/03/03 08:43:20;;;;;;;10.48;3.67;;;5.00;77.10;;;;;;5041289;28;20053;-83
2023/03/03 08:45:48;;;;;;;10.33;3.97;;;5.00;77.20;;;;;;5057662;28;20049;-78
2023/03/03 08:48:15;;;;;;;10.77;3.83;;;4.90;77.60;;;;;;5043150;28;20248;-81
2023/03/03 08:50:44;;;;;;;11.20;3.88;;;4.90;77.60;;;;;;5041974;28;20509;-82
2023/03/03 08:53:12;;;;;;;9.73;4.00;;;4.90;78.10;;;;;;5059335;28;20052;-82
2023/03/03 08:55:39;;;;;;;11.50;4.20;;;4.90;77.80;;;;;;5047694;28;20600;-80
2023/03/03 08:58:08;;;;;;;11.37;5.00;;;4.80;77.90;;;;;;5069623;28;20077;-79
2023/03/03 09:00:35;;;;;;;17.02;4.70;;;4.70;77.90;;;;;;5060733;28;20309;-80
2023/03/03 09:03:02;;;;;;;11.52;3.90;;;4.70;78.10;;;;;;5061191;28;20085;-81
2023/03/03 09:05:30;;;;;;;10.05;3.38;;;4.70;78.30;;;;;;5060618;28;20041;-76
2023/03/03 09:07:58;;;;;;;6.53;2.80;;;4.70;78.60;;;;;;5040541;28;20569;-79
2023/03/03 09:10:29;;;;;;;6.53;2.67;;;4.70;78.60;;;;;;5054600;28;20597;-80
2023/03/03 09:13:00;;;;;;;7.07;1.95;;;4.60;79.50;;;;;;5060730;28;20249;-80
2023/03/03 09:15:30;;;;;;;6.38;2.50;;;4.60;79.30;;;;;;5065579;28;20041;-77
2023/03/03 09:18:00;;;;;;;6.05;2.00;;;4.50;80.00;;;;;;5061894;28;20049;-80
2023/03/03 09:20:34;;;;;;;5.25;1.83;;;4.50;80.50;;;;;;5060603;28;20506;-78
2023/03/03 09:23:28;;;;;;;6.57;2.50;;;4.50;80.70;;;;;;5066987;28;20049;-78
2023/03/03 09:25:55;;;;;;;9.90;2.90;;;4.50;80.00;;;;;;5069488;28;20292;-78
2023/03/03 09:28:25;;;;;;;6.80;2.60;;;4.50;79.70;;;;;;5066329;28;20059;-78
2023/03/03 09:30:54;;;;;;;7.25;3.05;;;4.60;79.60;;;;;;5066873;28;20079;-78
2023/03/03 09:33:28;;;;;;;8.55;3.40;;;4.70;79.50;;;;;;5066868;28;20486;-78
2023/03/03 09:36:02;;;;;;;9.37;3.43;;;4.70;79.50;;;;;;5068586;28;20090;-78
2023/03/03 09:38:31;;;;;;;9.10;3.30;;;4.70;79.60;;;;;;5065391;28;20392;-78
2023/03/03 09:41:30;;;;;;;9.70;3.42;;;4.70;79.50;;;;;;5070500;28;20049;-77
2023/03/03 09:44:17;;;;;;;8.77;3.70;;;4.70;79.50;;;;;;5024422;28;20060;-77
2023/03/03 09:47:03;;;;;;;9.85;4.38;;;4.70;79.60;;;;;;5062835;28;20143;-77
2023/03/03 09:49:33;;;;;;;8.67;3.30;;;4.70;79.50;;;;;;5066745;28;20105;-77
2023/03/03 09:52:16;;;;;;;7.45;3.15;;;4.80;79.60;;;;;;5064016;28;20272;-77
2023/03/03 09:54:56;;;;;;;7.93;3.03;;;4.80;79.50;;;;;;5048004;28;20163;-78
2023/03/03 09:57:30;;;;;;;8.32;3.58;;;4.90;79.70;;;;;;5064716;28;20049;-78
2023/03/03 10:00:18;;;;;;;9.07;4.07;;;4.90;79.60;;;;;;5064687;28;20045;-77
2023/03/03 10:03:03;;;;;;;10.57;3.93;;;4.90;79.70;;;;;;5049396;28;20053;-78
2023/03/03 10:05:41;;;;;;;7.95;3.75;;;5.00;79.80;;;;;;5063969;28;20272;-79
2023/03/03 10:08:24;;;;;;;9.10;3.00;;;5.00;79.80;;;;;;5065574;28;20545;-78
2023/03/03 10:11:09;;;;;;;9.43;3.20;;;5.00;80.00;;;;;;5064136;28;20068;-78
2023/03/03 10:14:00;;;;;;;8.07;3.03;;;5.00;79.90;;;;;;5066200;28;20151;-77
2023/03/03 10:16:57;;;;;;;7.57;3.40;;;5.00;79.70;;;;;;5064547;28;20592;-78
2023/03/03 10:19:37;;;;;;;7.05;3.08;;;5.00;79.90;;;;;;5065337;28;20809;-78
2023/03/03 10:22:19;;;;;;;7.40;3.40;;;5.00;80.00;;;;;;5065820;28;20045;-77
2023/03/03 10:25:00;;;;;;;9.73;3.67;;;5.00;79.90;;;;;;5067081;28;20056;-77
2023/03/03 10:27:42;;;;;;;8.30;3.70;;;5.00;80.10;;;;;;5049555;28;20037;-77
2023/03/03 10:30:16;;;;;;;8.97;3.70;;;5.10;80.30;;;;;;5067818;28;20046;-78
2023/03/03 10:32:51;;;;;;;10.60;3.60;;;5.10;80.40;;;;;;5066972;28;20276;-78
2023/03/03 10:35:39;;;;;;;8.10;3.80;;;5.20;80.40;;;;;;5068845;28;20049;-77
2023/03/03 10:38:25;;;;;;;8.13;3.03;;;5.20;80.50;;;;;;5063923;28;20701;-78
2023/03/03 10:40:58;;;;;;;9.57;3.38;;;5.30;80.40;;;;;;5062443;28;20491;-79
2023/03/03 10:44:04;;;;;;;8.07;3.43;;;5.30;80.50;;;;;;5062471;28;20052;-78
2023/03/03 10:46:51;;;;;;;6.90;2.90;;;5.30;80.50;;;;;;5065117;28;20282;-78
2023/03/03 10:49:27;;;;;;;6.65;2.35;;;5.40;80.60;;;;;;5064951;28;20493;-79
2023/03/03 10:52:19;;;;;;;7.57;2.90;;;5.40;80.70;;;;;;5066008;28;20045;-79
2023/03/03 10:55:03;;;;;;;5.78;2.60;;;5.50;80.70;;;;;;5048508;28;20549;-79
2023/03/03 10:57:37;;;;;;;6.17;2.20;;;5.50;80.70;;;;;;5070100;28;20049;-78
2023/03/03 11:00:19;;;;;;;6.80;2.25;;;5.50;81.20;;;;;;5064466;28;20730;-78
2023/03/03 11:03:00;;;;;;;7.57;2.47;;;5.50;80.90;;;;;;5073276;28;20257;-80
2023/03/03 11:05:36;;;;;;;6.63;2.65;;;5.50;80.70;;;;;;5064793;28;20187;-79
2023/03/03 11:08:14;;;;;;;6.97;2.53;;;5.60;81.00;;;;;;5064024;28;20249;-78
2023/03/03 11:10:54;;;;;;;7.23;3.20;;;5.60;80.70;;;;;;5066740;28;20047;-80
2023/03/03 11:13:34;;;;;;;6.13;2.58;;;5.60;80.70;;;;;;5069661;28;20753;-80
2023/03/03 11:16:15;;;;;;;8.77;2.85;;;5.70;80.70;;;;;;5062329;28;20060;-79
2023/03/03 11:19:00;;;;;;;8.45;2.70;;;5.70;80.70;;;;;;5063010;28;20136;-77
2023/03/03 11:21:33;;;;;;;9.63;3.75;;;5.70;80.70;;;;;;5065133;28;20052;-78
2023/03/03 11:24:15;;;;;;;11.70;4.60;;;5.80;80.60;;;;;;5065628;28;20057;-78
2023/03/03 11:27:11;;;;;;;13.35;4.70;;;5.80;80.70;;;;;;5063055;28;20295;-78
2023/03/03 11:30:03;;;;;;;13.68;5.97;;;5.80;80.90;;;;;;5063743;28;20056;-80
2023/03/03 11:32:41;;;;;;;10.55;4.35;;;5.90;80.70;;;;;;5065427;28;20191;-78
2023/03/03 11:35:23;;;;;;;8.85;3.88;;;5.90;80.80;;;;;;5066149;28;20159;-79
2023/03/03 11:38:03;;;;;;;10.53;4.00;;;5.90;80.50;;;;;;5062595;28;20067;-78
2023/03/03 11:40:41;;;;;;;10.00;4.63;;;6.00;80.20;;;;;;5067074;28;20283;-78
2023/03/03 11:43:16;;;;;;;11.25;4.82;;;6.00;80.20;;;;;;5065290;28;20507;-78
2023/03/03 11:45:48;;;;;;;10.32;3.70;;;6.10;80.20;;;;;;5065059;28;20578;-78
2023/03/03 11:48:19;;;;;;;9.32;3.80;;;6.20;80.40;;;;;;5064557;28;20057;-78
2023/03/03 11:50:55;;;;;;;8.23;3.50;;;6.20;80.40;;;;;;5049141;28;20053;-78
2023/03/03 11:53:38;;;;;;;7.78;3.22;;;6.30;80.40;;;;;;5061263;28;20262;-78
2023/03/03 11:56:17;;;;;;;6.63;3.13;;;6.40;80.20;;;;;;5065330;28;20207;-78
2023/03/03 11:58:50;;;;;;;7.50;2.50;;;6.50;80.10;;;;;;5052130;28;20068;-79
2023/03/03 12:01:23;;;;;;;6.15;1.58;;;6.60;79.90;;;;;;5068188;28;20067;-78
2023/03/03 12:03:56;;;;;;;4.53;1.20;;;6.60;79.60;;;;;;5072115;28;20604;-79
2023/03/03 12:06:31;;;;;;;4.88;1.40;;;6.70;79.40;;;;;;5067745;28;20716;-80
2023/03/03 12:09:09;;;;;;;3.35;1.13;;;6.80;77.80;;;;;;5067342;28;20703;-80
2023/03/03 12:11:48;;;;;;;3.10;1.15;;;6.80;77.70;;;;;;5067190;28;20139;-80
2023/03/03 12:14:28;;;;;;;4.78;1.20;;;6.90;78.00;;;;;;5072377;28;20055;-81
2023/03/03 12:16:57;;;;;;;4.17;0.90;;;6.90;77.70;;;;;;5065794;28;20131;-81
2023/03/03 12:19:35;;;;;;;4.50;0.90;;;7.00;77.10;;;;;;5061396;28;20318;-80
2023/03/03 12:22:13;;;;;;;3.30;1.00;;;7.00;76.40;;;;;;5061141;28;20057;-79
2023/03/03 12:24:53;;;;;;;3.92;0.98;;;7.00;76.40;;;;;;5070325;28;20144;-78
2023/03/03 12:27:28;;;;;;;3.97;1.30;;;7.10;76.30;;;;;;5067557;28;20685;-78
2023/03/03 12:30:09;;;;;;;3.80;1.30;;;7.20;75.50;;;;;;5063012;28;20079;-77
2023/03/03 12:32:51;;;;;;;4.95;1.45;;;7.20;74.20;;;;;;5066028;28;20286;-77
2023/03/03 12:35:26;;;;;;;3.63;1.20;;;7.20;74.20;;;;;;5064593;28;20056;-77
2023/03/03 12:37:56;;;;;;;4.22;1.42;;;7.20;74.40;;;;;;5057900;28;20566;-77
2023/03/03 12:40:26;;;;;;;4.75;1.70;;;7.20;74.70;;;;;;5060688;28;21081;-77
2023/03/03 12:43:07;;;;;;;5.43;1.67;;;7.20;75.00;;;;;;5062321;28;20041;-78
2023/03/03 12:45:45;;;;;;;4.72;1.38;;;7.30;74.30;;;;;;5057683;28;20266;-78
2023/03/03 12:48:17;;;;;;;4.47;1.00;;;7.40;74.60;;;;;;5064036;28;20049;-78
2023/03/03 12:50:57;;;;;;;3.22;1.00;;;7.40;74.30;;;;;;5065322;28;20053;-79
2023/03/03 12:53:37;;;;;;;4.93;1.10;;;7.40;74.10;;;;;;5065951;28;20057;-78
2023/03/03 12:56:07;;;;;;;3.47;1.00;;;7.50;73.70;;;;;;5064894;28;20067;-78
2023/03/03 12:58:46;;;;;;;3.35;1.08;;;7.50;74.00;;;;;;5049665;28;20282;-79
2023/03/03 13:01:32;;;;;;;5.40;0.95;;;7.50;73.40;;;;;;5064955;28;20076;-79
2023/03/03 13:04:08;;;;;;;2.03;0.50;;;7.60;72.90;;;;;;5094083;27;20139;-79
2023/03/03 13:06:42;;;;;;;3.47;0.80;;;7.60;69.70;;;;;;5065387;28;20131;-79
2023/03/03 13:09:23;;;;;;;4.00;1.10;;;7.50;68.60;;;;;;5066483;28;20045;-80
2023/03/03 13:12:15;;;;;;;5.15;1.02;;;7.60;69.20;;;;;;5071420;28;20265;-79
2023/03/03 13:14:51;;;;;;;3.35;0.60;;;7.50;68.10;;;;;;5067128;28;20052;-78
2023/03/03 13:17:24;;;;;;;5.07;1.08;;;7.50;68.30;;;;;;5078262;28;20136;-79